Time;durP1;ratioP1;P1;durP2;ratioP2;P2;SDS_P1;SDS_P2;PMS_P1;PMS_P2;Temp;Humidity;BMP_temperature;BMP_pressure;BME280_temperature;BME280_humidity;BME280_pressure;Samples;Min_cycle;Max_cycle;Signal;HPM_P1;HPM_P2
2023/05/26 00:00:04;;;;;;;1.60;1.50;;;22.30;76.70;;;;;;5092767;28;20850;-85
2023/05/26 00:02:31;;;;;;;1.67;1.40;;;22.30;76.10;;;;;;5094359;28;20530;-86
2023/05/26 00:04:59;;;;;;;2.00;1.43;;;22.30;76.50;;;;;;5096973;28;20437;-85
2023/05/26 00:07:27;;;;;;;2.23;1.77;;;22.30;76.50;;;;;;5096845;28;20484;-85
2023/05/26 00:09:54;;;;;;;1.63;1.33;;;22.30;76.90;;;;;;5096567;28;20446;-86
2023/05/26 00:12:22;;;;;;;1.70;1.20;;;22.30;76.40;;;;;;5096803;28;20891;-87
2023/05/26 00:14:48;;;;;;;1.93;1.40;;;22.20;76.40;;;;;;5097311;28;20450;-85
2023/05/26 00:17:16;;;;;;;1.77;1.37;;;22.30;76.70;;;;;;5096189;28;20452;-85
2023/05/26 00:19:43;;;;;;;1.50;1.30;;;22.20;76.50;;;;;;5097301;28;20449;-85
2023/05/26 00:22:12;;;;;;;1.70;1.30;;;22.50;76.60;;;;;;5095913;28;20461;-85
2023/05/26 00:24:40;;;;;;;1.47;1.33;;;22.20;76.50;;;;;;5096624;28;20462;-85
2023/05/26 00:27:07;;;;;;;1.93;1.60;;;22.30;76.70;;;;;;5096468;28;20443;-88
2023/05/26 00:29:36;;;;;;;1.87;1.20;;;22.20;76.20;;;;;;5096539;28;20450;-86
2023/05/26 00:32:03;;;;;;;2.33;2.00;;;22.20;76.30;;;;;;5096450;28;20846;-85
2023/05/26 00:34:29;;;;;;;1.40;1.30;;;22.20;76.30;;;;;;5096471;28;20442;-86
2023/05/26 00:36:56;;;;;;;1.53;1.40;;;22.20;76.60;;;;;;5096278;28;20445;-85
2023/05/26 00:39:23;;;;;;;1.80;1.70;;;22.30;76.70;;;;;;5096480;28;20441;-85
2023/05/26 00:41:51;;;;;;;1.77;1.10;;;22.20;76.40;;;;;;5096323;28;20440;-85
2023/05/26 00:44:18;;;;;;;1.40;1.17;;;22.20;76.60;;;;;;5096365;28;21036;-85
2023/05/26 00:46:45;;;;;;;1.93;1.60;;;22.20;76.50;;;;;;5096532;28;20445;-86
2023/05/26 00:49:12;;;;;;;1.60;1.43;;;22.20;76.30;;;;;;5096025;28;20443;-86
2023/05/26 00:51:39;;;;;;;1.40;1.30;;;22.20;76.60;;;;;;5095564;28;20479;-85
2023/05/26 00:54:06;;;;;;;2.10;1.73;;;22.20;76.30;;;;;;5096266;28;20462;-86
2023/05/26 00:56:35;;;;;;;1.50;1.10;;;22.20;75.90;;;;;;5096211;28;20800;-85
2023/05/26 00:59:03;;;;;;;1.40;1.10;;;22.20;75.80;;;;;;5096458;28;20519;-86
2023/05/26 01:01:30;;;;;;;2.23;1.40;;;22.20;76.70;;;;;;5095810;28;20447;-86
2023/05/26 01:03:58;;;;;;;1.67;1.27;;;22.20;76.80;;;;;;5095956;28;20449;-85
2023/05/26 01:06:25;;;;;;;1.50;1.40;;;22.20;76.60;;;;;;5095588;28;20453;-87
2023/05/26 01:08:52;;;;;;;1.50;1.27;;;22.10;76.20;;;;;;5095786;28;20434;-85
2023/05/26 01:11:26;;;;;;;1.30;1.20;;;22.20;76.40;;;;;;5095486;28;20922;-86
2023/05/26 01:13:56;;;;;;;2.23;1.40;;;22.20;76.30;;;;;;5095230;28;20437;-85
2023/05/26 01:16:28;;;;;;;1.63;1.40;;;22.20;76.60;;;;;;5095883;28;20442;-85
2023/05/26 01:19:02;;;;;;;1.67;1.53;;;22.20;76.10;;;;;;5096154;28;20441;-87
2023/05/26 01:21:34;;;;;;;2.07;1.87;;;22.10;76.20;;;;;;5095591;28;20527;-85
2023/05/26 01:24:12;;;;;;;1.53;1.43;;;22.20;76.50;;;;;;5095666;28;21016;-87
2023/05/26 01:26:58;;;;;;;2.23;1.47;;;22.10;76.30;;;;;;5095810;28;20435;-85
2023/05/26 01:29:30;;;;;;;1.50;1.20;;;22.20;76.10;;;;;;5094927;28;20447;-85
2023/05/26 01:32:07;;;;;;;1.63;1.30;;;22.10;75.60;;;;;;5095633;28;20924;-86
2023/05/26 01:34:34;;;;;;;1.60;1.20;;;22.20;76.40;;;;;;5095333;28;20436;-86
2023/05/26 01:37:01;;;;;;;1.93;1.53;;;22.10;75.80;;;;;;5095275;28;20837;-86
2023/05/26 01:39:28;;;;;;;1.83;1.50;;;22.10;76.10;;;;;;5095352;28;20444;-86
2023/05/26 01:42:06;;;;;;;1.50;1.40;;;22.10;76.30;;;;;;5094651;28;20806;-86
2023/05/26 01:44:39;;;;;;;1.60;1.40;;;22.10;76.30;;;;;;5095402;28;20446;-86
2023/05/26 01:47:07;;;;;;;1.50;1.23;;;22.10;76.30;;;;;;5094934;28;20441;-85
2023/05/26 01:49:35;;;;;;;2.40;1.83;;;22.10;76.20;;;;;;5094935;28;20440;-86
2023/05/26 01:52:04;;;;;;;1.57;1.47;;;22.20;76.20;;;;;;5094270;28;20492;-85
2023/05/26 01:54:36;;;;;;;2.13;1.20;;;22.10;76.00;;;;;;5095085;28;20467;-85
2023/05/26 01:57:05;;;;;;;1.50;1.40;;;22.10;76.20;;;;;;5094615;28;20446;-86
2023/05/26 01:59:33;;;;;;;1.60;1.50;;;22.10;76.00;;;;;;5094863;28;20944;-86
2023/05/26 02:02:01;;;;;;;1.30;1.20;;;22.10;75.90;;;;;;5093919;28;20443;-85
2023/05/26 02:04:28;;;;;;;1.27;1.10;;;22.10;75.80;;;;;;5094952;28;20563;-85
2023/05/26 02:06:57;;;;;;;1.80;1.20;;;22.10;76.20;;;;;;5094669;28;20446;-87
2023/05/26 02:09:23;;;;;;;1.47;1.30;;;22.10;76.30;;;;;;5094734;28;20527;-85
2023/05/26 02:11:50;;;;;;;1.30;1.13;;;22.00;76.30;;;;;;5093708;28;20491;-85
2023/05/26 02:14:17;;;;;;;1.30;1.20;;;22.10;76.00;;;;;;5094470;28;20448;-85
2023/05/26 02:16:44;;;;;;;1.70;1.37;;;22.10;76.30;;;;;;5094617;28;20878;-85
2023/05/26 02:19:13;;;;;;;1.80;1.50;;;22.10;76.50;;;;;;5094841;28;20445;-85
2023/05/26 02:21:40;;;;;;;1.40;1.10;;;22.00;76.80;;;;;;5094485;28;20438;-86
2023/05/26 02:24:08;;;;;;;2.43;1.20;;;22.00;76.20;;;;;;5093788;28;20466;-85
2023/05/26 02:26:35;;;;;;;1.50;1.13;;;22.00;76.40;;;;;;5094092;28;20787;-85
2023/05/26 02:29:01;;;;;;;3.83;1.50;;;22.00;76.50;;;;;;5094356;28;20955;-87
2023/05/26 02:31:28;;;;;;;1.87;1.27;;;22.00;75.90;;;;;;5093794;28;20479;-85
2023/05/26 02:33:55;;;;;;;1.40;1.20;;;22.00;76.10;;;;;;5094417;28;20433;-86
2023/05/26 02:36:23;;;;;;;1.73;1.10;;;22.00;76.50;;;;;;5094096;28;20434;-85
2023/05/26 02:38:50;;;;;;;1.50;1.30;;;22.00;76.70;;;;;;5094265;28;20518;-85
2023/05/26 02:41:17;;;;;;;1.30;1.10;;;22.00;76.20;;;;;;5093733;28;20945;-85
2023/05/26 02:43:44;;;;;;;3.70;1.33;;;22.00;76.70;;;;;;5093810;28;20445;-87
2023/05/26 02:46:11;;;;;;;1.40;1.00;;;22.00;76.40;;;;;;5094180;28;20433;-85
2023/05/26 02:48:38;;;;;;;1.30;1.10;;;22.00;76.20;;;;;;5093697;28;20467;-85
2023/05/26 02:51:05;;;;;;;1.50;1.10;;;22.00;76.20;;;;;;5093683;28;20440;-85
2023/05/26 02:53:33;;;;;;;1.40;1.23;;;22.00;76.20;;;;;;5094035;28;20545;-85
2023/05/26 02:56:00;;;;;;;2.30;1.43;;;22.00;76.80;;;;;;5093346;28;20952;-85
2023/05/26 02:58:28;;;;;;;1.30;1.20;;;22.00;77.40;;;;;;5094009;28;20523;-85
2023/05/26 03:00:55;;;;;;;1.90;1.47;;;22.00;76.90;;;;;;5093809;28;20444;-85
2023/05/26 03:03:22;;;;;;;1.50;1.40;;;22.00;76.50;;;;;;5093510;28;20446;-85
2023/05/26 03:05:48;;;;;;;1.83;1.33;;;21.90;76.10;;;;;;5093530;28;20451;-85
2023/05/26 03:08:15;;;;;;;1.40;1.30;;;22.00;76.60;;;;;;5094273;28;20441;-86
2023/05/26 03:10:43;;;;;;;2.03;1.20;;;22.00;76.70;;;;;;5093228;28;20731;-85
2023/05/26 03:13:10;;;;;;;1.30;1.10;;;22.00;76.50;;;;;;5093157;28;20923;-86
2023/05/26 03:15:39;;;;;;;4.23;1.30;;;22.00;76.70;;;;;;5093127;28;20462;-86
2023/05/26 03:18:06;;;;;;;1.70;1.40;;;22.00;77.00;;;;;;5093486;28;20498;-84
2023/05/26 03:20:33;;;;;;;1.60;1.40;;;22.00;76.80;;;;;;5093405;28;20445;-84
2023/05/26 03:23:00;;;;;;;1.67;1.57;;;21.90;77.50;;;;;;5093254;28;20988;-85
2023/05/26 03:25:26;;;;;;;2.00;1.70;;;22.00;76.30;;;;;;5093216;28;20937;-85
2023/05/26 03:27:55;;;;;;;2.00;1.13;;;21.90;76.00;;;;;;5093751;28;20442;-85
2023/05/26 03:30:22;;;;;;;1.60;1.33;;;22.00;76.60;;;;;;5093283;28;20956;-84
2023/05/26 03:32:49;;;;;;;1.50;1.27;;;21.90;76.60;;;;;;5093404;28;20494;-85
2023/05/26 03:35:15;;;;;;;1.40;1.27;;;21.90;76.40;;;;;;5093005;28;20801;-85
2023/05/26 03:37:42;;;;;;;1.50;1.40;;;21.90;76.40;;;;;;5092771;28;20597;-85
2023/05/26 03:40:10;;;;;;;1.30;1.10;;;21.90;76.10;;;;;;5092929;28;20470;-85
2023/05/26 03:42:36;;;;;;;1.70;1.40;;;21.90;76.20;;;;;;5093122;28;20443;-85
2023/05/26 03:45:05;;;;;;;1.17;1.07;;;21.90;75.70;;;;;;5093109;28;20450;-84
2023/05/26 03:47:32;;;;;;;2.07;1.30;;;21.90;75.60;;;;;;5093039;28;20439;-87
2023/05/26 03:49:59;;;;;;;1.30;1.07;;;21.90;76.00;;;;;;5093420;28;20441;-85
2023/05/26 03:52:26;;;;;;;2.47;1.67;;;21.90;75.60;;;;;;5093011;28;20485;-84
2023/05/26 03:54:53;;;;;;;1.77;1.30;;;21.90;75.60;;;;;;5093166;28;20484;-86
2023/05/26 03:57:20;;;;;;;1.50;1.27;;;21.90;75.80;;;;;;5093265;28;20449;-87
2023/05/26 03:59:46;;;;;;;1.40;1.30;;;21.90;75.50;;;;;;5092689;28;20451;-85
2023/05/26 04:02:15;;;;;;;1.30;1.10;;;22.00;75.40;;;;;;5092421;28;20959;-85
2023/05/26 04:04:41;;;;;;;1.30;1.20;;;21.90;76.10;;;;;;5093319;28;20445;-85
2023/05/26 04:07:08;;;;;;;1.30;1.17;;;21.90;75.70;;;;;;5092263;28;20439;-84
2023/05/26 04:09:36;;;;;;;2.17;1.33;;;21.90;75.30;;;;;;5093451;28;20437;-85
2023/05/26 04:12:03;;;;;;;1.60;1.47;;;21.90;75.70;;;;;;5092656;28;20477;-85
2023/05/26 04:14:29;;;;;;;1.53;1.40;;;21.90;75.60;;;;;;5092938;28;20933;-85
2023/05/26 04:16:56;;;;;;;1.40;1.30;;;21.90;74.90;;;;;;5092743;28;20447;-85
2023/05/26 04:19:24;;;;;;;2.00;1.30;;;21.90;75.40;;;;;;5093274;28;20466;-85
2023/05/26 04:21:51;;;;;;;2.60;1.53;;;21.90;75.60;;;;;;5092729;28;20445;-85
2023/05/26 04:24:18;;;;;;;1.83;1.40;;;21.90;75.30;;;;;;5092538;28;20458;-86
2023/05/26 04:26:45;;;;;;;1.80;1.43;;;21.90;75.00;;;;;;5092730;28;20439;-86
2023/05/26 04:29:12;;;;;;;1.50;1.10;;;21.90;75.30;;;;;;5093251;28;20441;-87
2023/05/26 04:31:40;;;;;;;1.83;1.70;;;21.90;75.30;;;;;;5092288;28;20478;-85
2023/05/26 04:34:08;;;;;;;1.40;1.30;;;21.90;75.00;;;;;;5092701;28;20443;-86
2023/05/26 04:36:38;;;;;;;1.73;1.30;;;21.90;74.90;;;;;;5092356;28;20446;-86
2023/05/26 04:39:05;;;;;;;1.20;1.00;;;21.90;75.30;;;;;;5092888;28;20981;-86
2023/05/26 04:41:33;;;;;;;1.27;1.00;;;21.90;75.10;;;;;;5092236;28;20445;-85
2023/05/26 04:44:00;;;;;;;2.93;1.20;;;21.90;74.80;;;;;;5092640;28;20489;-85
2023/05/26 04:46:28;;;;;;;1.20;1.07;;;21.90;74.80;;;;;;5092570;28;20450;-85
2023/05/26 04:48:56;;;;;;;1.70;1.60;;;21.90;75.20;;;;;;5081726;28;20443;-86
2023/05/26 04:51:23;;;;;;;1.33;1.07;;;21.90;74.60;;;;;;5096117;28;20454;-85
2023/05/26 04:53:51;;;;;;;1.47;1.23;;;21.90;74.70;;;;;;5095932;28;20487;-85
2023/05/26 04:56:18;;;;;;;1.40;1.10;;;21.90;74.50;;;;;;5096172;28;20458;-86
2023/05/26 04:58:45;;;;;;;1.50;1.23;;;21.90;74.60;;;;;;5096024;28;20457;-85
2023/05/26 05:01:12;;;;;;;1.80;1.40;;;21.90;75.10;;;;;;5095688;28;20451;-86
2023/05/26 05:03:42;;;;;;;1.40;1.10;;;21.90;74.50;;;;;;5095662;28;20851;-85
2023/05/26 05:06:09;;;;;;;1.50;1.40;;;21.90;74.80;;;;;;5095779;28;20450;-85
2023/05/26 05:08:36;;;;;;;1.40;1.23;;;21.90;74.70;;;;;;5095856;28;20446;-85
2023/05/26 05:11:04;;;;;;;1.80;1.20;;;21.90;74.80;;;;;;5095858;28;20443;-85
2023/05/26 05:13:33;;;;;;;1.50;1.10;;;21.90;74.20;;;;;;5095403;28;20501;-85
2023/05/26 05:16:00;;;;;;;1.20;1.10;;;21.90;73.80;;;;;;5095658;28;20439;-85
2023/05/26 05:18:27;;;;;;;1.50;1.20;;;21.90;74.10;;;;;;5095799;28;20806;-85
2023/05/26 05:20:54;;;;;;;1.73;1.17;;;21.90;73.90;;;;;;5095845;28;20445;-86
2023/05/26 05:23:21;;;;;;;1.60;1.37;;;21.90;73.90;;;;;;5095593;28;20483;-85
2023/05/26 05:25:48;;;;;;;1.10;0.87;;;21.90;73.80;;;;;;5095985;28;20447;-87
2023/05/26 05:28:16;;;;;;;1.30;1.00;;;21.90;74.10;;;;;;5095555;28;20446;-86
2023/05/26 05:30:42;;;;;;;8.90;3.23;;;21.90;74.10;;;;;;5094561;28;20457;-87
2023/05/26 05:33:09;;;;;;;11.57;4.80;;;21.90;72.90;;;;;;5095476;28;20481;-86
2023/05/26 05:35:36;;;;;;;18.47;5.20;;;21.80;70.50;;;;;;5095791;28;20441;-86
2023/05/26 05:38:04;;;;;;;15.87;4.67;;;21.70;70.00;;;;;;5095395;28;20449;-82
2023/05/26 05:40:30;;;;;;;15.60;5.23;;;21.50;69.80;;;;;;5095135;28;20443;-83
2023/05/26 05:42:57;;;;;;;13.63;4.30;;;21.40;76.80;;;;;;5094759;28;20442;-81
2023/05/26 05:45:25;;;;;;;17.53;5.20;;;21.30;76.40;;;;;;5094962;28;20435;-83
2023/05/26 05:47:52;;;;;;;7.07;2.73;;;21.30;78.30;;;;;;5094705;28;20432;-83
2023/05/26 05:50:19;;;;;;;11.23;3.20;;;21.40;79.70;;;;;;5095060;28;20803;-81
2023/05/26 05:52:46;;;;;;;7.37;3.30;;;21.50;79.70;;;;;;5092774;28;20488;-96
2023/05/26 05:55:13;;;;;;;8.00;3.17;;;21.50;80.10;;;;;;5089161;28;20442;-85
2023/05/26 05:57:39;;;;;;;8.60;3.03;;;21.60;79.90;;;;;;5095619;28;20434;-90
2023/05/26 06:00:09;;;;;;;4.87;2.67;;;21.60;79.60;;;;;;5094302;28;20438;-82
2023/05/26 06:02:38;;;;;;;9.57;3.10;;;21.70;78.90;;;;;;5094896;28;20808;-87
2023/05/26 06:05:05;;;;;;;11.50;3.40;;;21.70;79.60;;;;;;5094648;28;20455;-83
2023/05/26 06:07:32;;;;;;;5.23;2.40;;;21.70;79.00;;;;;;5094767;28;20525;-82
2023/05/26 06:09:59;;;;;;;6.00;3.30;;;21.80;79.00;;;;;;5094576;28;20825;-82
2023/05/26 06:12:26;;;;;;;5.30;2.43;;;21.80;78.90;;;;;;5094714;28;20600;-81
2023/05/26 06:14:53;;;;;;;5.70;2.90;;;21.80;78.30;;;;;;5094452;28;20446;-88
2023/05/26 06:17:19;;;;;;;4.60;2.60;;;21.90;78.60;;;;;;5094656;28;20453;-90
2023/05/26 06:19:48;;;;;;;7.87;3.03;;;21.90;78.60;;;;;;5094732;28;20438;-81
2023/05/26 06:22:14;;;;;;;8.80;2.50;;;21.90;78.60;;;;;;5094694;28;20438;-88
2023/05/26 06:24:41;;;;;;;4.70;2.80;;;21.90;78.50;;;;;;5088784;28;20455;-81
2023/05/26 06:27:08;;;;;;;5.57;2.20;;;21.90;78.30;;;;;;5074264;28;20448;-91
2023/05/26 06:29:35;;;;;;;8.53;3.00;;;21.90;77.60;;;;;;5074365;28;20440;-83
2023/05/26 06:32:01;;;;;;;4.83;2.50;;;22.00;78.00;;;;;;5075998;28;20438;-88
2023/05/26 06:34:28;;;;;;;4.00;2.30;;;22.00;78.20;;;;;;5093936;28;20447;-89
2023/05/26 06:36:56;;;;;;;5.10;2.70;;;22.00;77.70;;;;;;5094613;28;20435;-83
2023/05/26 06:39:24;;;;;;;4.93;2.30;;;22.00;78.00;;;;;;5094305;28;20445;-81
2023/05/26 06:41:51;;;;;;;6.67;2.43;;;22.00;78.00;;;;;;5094109;28;20436;-84
2023/05/26 06:44:18;;;;;;;8.63;2.17;;;22.00;77.80;;;;;;5094066;28;20448;-82
2023/05/26 06:46:45;;;;;;;2.37;2.00;;;22.00;77.70;;;;;;5094221;28;20440;-90
2023/05/26 06:49:12;;;;;;;5.00;2.70;;;22.00;77.50;;;;;;5094072;28;20438;-82
2023/05/26 06:51:38;;;;;;;5.37;2.40;;;22.00;77.10;;;;;;5093968;28;20440;-82
2023/05/26 06:54:07;;;;;;;6.53;2.27;;;22.00;76.80;;;;;;5073420;28;20840;-84
2023/05/26 06:56:34;;;;;;;7.43;1.90;;;22.00;76.80;;;;;;5073961;28;20443;-83
2023/05/26 06:59:00;;;;;;;4.37;2.27;;;22.10;77.10;;;;;;5073716;28;20439;-81
2023/05/26 07:01:27;;;;;;;4.80;2.10;;;22.20;77.00;;;;;;5087652;28;20451;-88
2023/05/26 07:03:54;;;;;;;6.70;2.70;;;22.10;77.00;;;;;;5093694;28;20446;-88
2023/05/26 07:06:20;;;;;;;4.80;2.40;;;22.10;77.10;;;;;;5093687;28;20446;-88
2023/05/26 07:08:47;;;;;;;3.43;2.00;;;22.10;77.50;;;;;;5093581;28;20532;-88
2023/05/26 07:11:16;;;;;;;3.80;1.73;;;22.10;83.50;;;;;;5093480;28;20447;-90
2023/05/26 07:13:44;;;;;;;2.57;1.67;;;22.10;83.30;;;;;;5093054;28;20501;-86
2023/05/26 07:16:11;;;;;;;3.90;2.27;;;22.10;83.20;;;;;;5093883;28;20436;-87
2023/05/26 07:18:37;;;;;;;8.37;2.60;;;22.10;83.60;;;;;;5093511;28;20442;-87
2023/05/26 07:21:04;;;;;;;13.37;2.30;;;22.30;83.30;;;;;;5093489;28;20447;-87
2023/05/26 07:23:31;;;;;;;6.33;2.10;;;22.00;83.00;;;;;;5093697;28;20813;-87
2023/05/26 07:25:58;;;;;;;6.63;2.07;;;22.20;83.00;;;;;;5093569;28;20439;-88
2023/05/26 07:28:26;;;;;;;3.80;2.10;;;22.20;83.60;;;;;;5093029;28;20438;-87
2023/05/26 07:30:53;;;;;;;4.57;2.30;;;22.00;83.40;;;;;;5093250;28;20454;-88
2023/05/26 07:33:20;;;;;;;4.67;2.00;;;22.00;83.40;;;;;;5093040;28;20810;-88
2023/05/26 07:35:46;;;;;;;4.50;2.00;;;22.00;83.80;;;;;;5093012;28;20453;-88
2023/05/26 07:38:13;;;;;;;3.47;2.30;;;22.00;83.80;;;;;;5093255;28;21020;-88
2023/05/26 07:40:40;;;;;;;1.70;1.60;;;22.10;83.80;;;;;;5093029;28;20451;-88
2023/05/26 07:43:12;;;;;;;2.67;1.87;;;22.00;83.90;;;;;;5093238;28;20447;-88
2023/05/26 07:45:40;;;;;;;4.60;2.00;;;22.10;84.20;;;;;;5093550;28;20497;-91
2023/05/26 07:48:07;;;;;;;4.67;2.00;;;22.20;84.50;;;;;;5093358;28;20439;-89
2023/05/26 07:50:34;;;;;;;5.40;2.33;;;22.10;85.10;;;;;;5093625;28;20455;-85
2023/05/26 07:53:01;;;;;;;3.93;1.90;;;22.10;85.30;;;;;;5093383;28;20837;-92
2023/05/26 07:55:27;;;;;;;5.93;1.97;;;22.10;85.30;;;;;;5093779;28;20447;-85
2023/05/26 07:57:54;;;;;;;3.13;2.00;;;22.20;85.30;;;;;;5093653;28;20446;-93
2023/05/26 08:00:21;;;;;;;4.30;1.73;;;22.20;85.50;;;;;;5093091;28;20447;-86
2023/05/26 08:02:49;;;;;;;4.60;2.00;;;22.30;85.80;;;;;;5092823;28;20439;-86
2023/05/26 08:05:16;;;;;;;3.70;1.90;;;22.30;86.30;;;;;;5092985;28;20946;-86
2023/05/26 08:07:43;;;;;;;5.73;2.03;;;22.30;84.60;;;;;;5093263;28;20435;-86
2023/05/26 08:10:10;;;;;;;2.80;1.40;;;22.30;85.40;;;;;;5092979;28;20457;-86
2023/05/26 08:12:37;;;;;;;7.53;2.60;;;22.20;84.00;;;;;;5092907;28;21008;-88
2023/05/26 08:15:05;;;;;;;4.20;2.20;;;22.20;84.20;;;;;;5087446;28;20787;-82
2023/05/26 08:17:31;;;;;;;7.40;2.33;;;22.20;84.60;;;;;;5092268;28;20443;-82
2023/05/26 08:20:00;;;;;;;3.33;1.50;;;22.30;85.10;;;;;;5087303;28;20457;-83
2023/05/26 08:22:26;;;;;;;3.27;1.73;;;22.30;85.20;;;;;;5090198;28;20445;-85
2023/05/26 08:24:53;;;;;;;2.33;1.73;;;22.30;84.90;;;;;;5095795;28;20450;-82
2023/05/26 08:27:20;;;;;;;4.17;2.47;;;22.30;85.40;;;;;;5095581;28;20815;-86
2023/05/26 08:29:47;;;;;;;5.80;2.20;;;22.40;85.30;;;;;;5096980;28;20443;-84
2023/05/26 08:32:14;;;;;;;2.83;1.70;;;22.40;85.30;;;;;;5097088;28;20443;-84
2023/05/26 08:34:42;;;;;;;2.77;1.47;;;22.50;85.50;;;;;;5096930;28;20487;-84
2023/05/26 08:37:11;;;;;;;8.37;2.40;;;22.50;85.50;;;;;;5097143;28;20443;-85
2023/05/26 08:39:38;;;;;;;3.23;2.23;;;22.60;85.50;;;;;;5097036;28;20443;-85
2023/05/26 08:42:07;;;;;;;2.80;1.63;;;22.60;85.40;;;;;;5096541;28;20447;-84
2023/05/26 08:44:34;;;;;;;2.70;1.40;;;22.70;85.40;;;;;;5097073;28;20444;-84
2023/05/26 08:47:04;;;;;;;3.00;1.77;;;22.70;85.30;;;;;;5096740;28;20954;-84
2023/05/26 08:49:36;;;;;;;2.73;1.50;;;22.60;84.80;;;;;;5096937;28;20493;-85
2023/05/26 08:52:07;;;;;;;3.17;1.70;;;22.70;84.80;;;;;;5096818;28;20991;-85
2023/05/26 08:54:36;;;;;;;4.30;1.80;;;22.80;85.10;;;;;;5096926;28;20489;-85
2023/05/26 08:57:05;;;;;;;2.80;1.70;;;22.80;85.10;;;;;;5096740;28;20501;-84
2023/05/26 08:59:32;;;;;;;3.50;1.80;;;22.80;85.20;;;;;;5097051;28;20531;-82
2023/05/26 09:02:00;;;;;;;3.00;1.73;;;22.80;84.80;;;;;;5098321;28;20476;-85
2023/05/26 09:04:29;;;;;;;2.73;1.93;;;22.80;84.90;;;;;;5098522;28;20443;-83
2023/05/26 09:06:57;;;;;;;4.60;1.73;;;22.80;83.80;;;;;;5098107;28;20443;-82
2023/05/26 09:09:24;;;;;;;4.53;1.10;;;22.80;84.60;;;;;;5097668;28;20439;-83
2023/05/26 09:11:53;;;;;;;2.70;1.63;;;22.80;85.30;;;;;;5097321;28;21003;-82
2023/05/26 09:14:22;;;;;;;2.17;1.40;;;22.80;85.30;;;;;;5096924;28;20576;-81
2023/05/26 09:16:49;;;;;;;2.67;1.30;;;22.80;85.60;;;;;;5096788;28;20442;-83
2023/05/26 09:19:17;;;;;;;2.40;1.50;;;23.10;85.90;;;;;;5097635;28;20439;-90
2023/05/26 09:21:46;;;;;;;3.70;1.77;;;22.90;85.50;;;;;;5096177;28;20435;-85
2023/05/26 09:24:15;;;;;;;8.53;2.00;;;23.10;85.50;;;;;;5095697;28;20831;-85
2023/05/26 09:26:42;;;;;;;5.70;2.97;;;22.90;84.90;;;;;;5095519;28;20440;-87
2023/05/26 09:29:11;;;;;;;10.13;2.97;;;22.90;85.80;;;;;;5095505;28;20439;-82
2023/05/26 09:31:39;;;;;;;8.97;3.23;;;22.90;85.90;;;;;;5096051;28;20942;-83
2023/05/26 09:34:07;;;;;;;14.23;3.57;;;22.90;86.60;;;;;;5095261;28;20552;-87
2023/05/26 09:36:36;;;;;;;11.17;4.33;;;23.00;86.80;;;;;;5095079;28;20610;-83
2023/05/26 09:39:04;;;;;;;9.83;3.00;;;23.00;87.50;;;;;;5095360;28;20530;-85
2023/05/26 09:41:38;;;;;;;17.47;4.20;;;23.00;86.80;;;;;;5095391;28;20489;-83
2023/05/26 09:44:13;;;;;;;15.00;3.67;;;23.00;86.70;;;;;;5095053;28;20453;-85
2023/05/26 09:46:40;;;;;;;12.03;3.57;;;23.10;86.70;;;;;;5081460;28;20523;-88
2023/05/26 09:49:13;;;;;;;11.90;3.20;;;23.20;87.00;;;;;;5095659;28;20930;-92
2023/05/26 09:51:40;;;;;;;5.13;2.60;;;23.10;87.10;;;;;;5095722;28;20436;-82
2023/05/26 09:54:09;;;;;;;7.33;2.93;;;23.10;87.00;;;;;;5095070;28;20483;-87
2023/05/26 09:56:37;;;;;;;5.20;2.90;;;23.10;87.00;;;;;;5094390;28;20447;-83
2023/05/26 09:59:05;;;;;;;13.43;3.30;;;23.10;86.50;;;;;;5093940;28;20435;-83
2023/05/26 10:01:37;;;;;;;11.17;2.60;;;23.10;85.80;;;;;;5094553;28;20448;-82
2023/05/26 10:04:07;;;;;;;9.63;3.37;;;23.10;85.10;;;;;;5095765;28;20490;-85
2023/05/26 10:06:35;;;;;;;7.97;2.80;;;23.10;85.70;;;;;;5094301;28;20443;-85
2023/05/26 10:09:03;;;;;;;5.80;2.77;;;23.10;86.10;;;;;;5094506;28;20784;-86
2023/05/26 10:11:33;;;;;;;11.83;3.10;;;23.10;85.80;;;;;;5094597;28;20452;-85
2023/05/26 10:14:00;;;;;;;10.93;2.67;;;23.20;86.60;;;;;;5094392;28;20478;-83
2023/05/26 10:16:27;;;;;;;12.27;3.63;;;23.20;86.50;;;;;;5093956;28;20454;-83
2023/05/26 10:18:56;;;;;;;9.27;2.80;;;23.20;86.30;;;;;;5093706;28;20448;-84
2023/05/26 10:21:27;;;;;;;5.87;2.70;;;23.20;86.00;;;;;;5094134;28;20444;-85
2023/05/26 10:24:00;;;;;;;7.03;2.80;;;23.20;86.10;;;;;;5093923;28;20472;-85
2023/05/26 10:26:32;;;;;;;5.33;3.20;;;23.30;85.80;;;;;;5094268;28;20445;-86
2023/05/26 10:29:07;;;;;;;4.30;2.73;;;23.30;85.80;;;;;;5094235;28;20449;-85
2023/05/26 10:31:35;;;;;;;13.60;2.70;;;23.30;85.90;;;;;;5093960;28;20446;-86
2023/05/26 10:34:12;;;;;;;6.63;2.57;;;23.30;85.70;;;;;;5093696;28;20479;-86
2023/05/26 10:36:39;;;;;;;9.37;2.77;;;23.30;85.70;;;;;;5094374;28;20427;-86
2023/05/26 10:39:10;;;;;;;6.90;2.83;;;23.30;86.10;;;;;;5094848;28;20527;-87
2023/05/26 10:41:39;;;;;;;5.40;2.10;;;23.40;86.20;;;;;;5094562;28;20432;-86
2023/05/26 10:44:07;;;;;;;8.83;2.80;;;23.40;86.30;;;;;;5094488;28;20447;-86
2023/05/26 10:46:38;;;;;;;9.50;2.90;;;23.40;86.10;;;;;;5094166;28;20434;-86
2023/05/26 10:49:20;;;;;;;5.00;3.00;;;23.50;86.30;;;;;;5093978;28;20447;-86
2023/05/26 10:51:51;;;;;;;7.20;2.50;;;23.50;85.90;;;;;;5094137;28;20451;-86
2023/05/26 10:54:22;;;;;;;4.90;3.03;;;23.50;86.10;;;;;;5094017;28;20550;-88
2023/05/26 10:56:51;;;;;;;6.00;2.70;;;23.50;86.40;;;;;;5094331;28;20455;-85
2023/05/26 10:59:21;;;;;;;6.43;2.27;;;23.50;86.20;;;;;;5094037;28;20441;-86
2023/05/26 11:01:51;;;;;;;8.03;2.23;;;23.70;86.60;;;;;;5093835;28;20468;-86
2023/05/26 11:04:21;;;;;;;4.30;2.03;;;23.60;86.30;;;;;;5094170;28;20934;-86
2023/05/26 11:07:02;;;;;;;4.70;2.10;;;23.60;86.10;;;;;;5094360;28;20945;-86
2023/05/26 11:09:29;;;;;;;4.70;2.40;;;23.60;86.10;;;;;;5094064;28;20440;-86
2023/05/26 11:11:58;;;;;;;3.67;2.50;;;23.60;86.20;;;;;;5093679;28;20809;-86
2023/05/26 11:14:27;;;;;;;4.00;2.50;;;23.60;86.60;;;;;;5093680;28;20481;-86
2023/05/26 11:16:56;;;;;;;5.93;2.40;;;23.70;86.60;;;;;;5093914;28;20931;-87
2023/05/26 11:19:32;;;;;;;8.03;2.40;;;23.70;86.70;;;;;;5093786;28;20462;-85
2023/05/26 11:21:59;;;;;;;3.00;1.60;;;23.70;86.70;;;;;;5094860;28;20449;-85
2023/05/26 11:24:26;;;;;;;3.80;1.83;;;23.70;86.60;;;;;;5094808;28;20449;-85
2023/05/26 11:26:54;;;;;;;2.97;1.70;;;23.70;86.50;;;;;;5096745;28;21012;-85
2023/05/26 11:29:23;;;;;;;3.70;1.80;;;23.70;86.40;;;;;;5096109;28;20436;-85
2023/05/26 11:31:52;;;;;;;5.37;2.27;;;23.70;86.30;;;;;;5096235;28;20452;-84
2023/05/26 11:34:20;;;;;;;3.43;2.00;;;23.70;86.50;;;;;;5099279;28;20521;-85
2023/05/26 11:36:51;;;;;;;5.00;2.10;;;23.80;86.40;;;;;;5097995;28;20943;-85
2023/05/26 11:39:19;;;;;;;6.33;2.60;;;23.80;86.60;;;;;;5096727;28;20467;-84
2023/05/26 11:41:47;;;;;;;5.77;2.00;;;23.80;86.40;;;;;;5096103;28;20469;-84
2023/05/26 11:44:15;;;;;;;4.40;1.50;;;23.80;86.30;;;;;;5096710;28;20493;-85
2023/05/26 11:46:43;;;;;;;4.00;2.30;;;23.80;86.30;;;;;;5095868;28;20527;-85
2023/05/26 11:49:14;;;;;;;3.70;1.83;;;23.80;86.20;;;;;;5096239;28;20508;-85
2023/05/26 11:51:48;;;;;;;6.90;1.80;;;23.80;86.30;;;;;;5096500;28;20456;-84
2023/05/26 11:54:16;;;;;;;4.00;2.57;;;23.80;87.10;;;;;;5096423;28;20485;-84
2023/05/26 11:56:44;;;;;;;4.90;1.73;;;23.80;86.70;;;;;;5096333;28;20509;-85
2023/05/26 11:59:16;;;;;;;5.90;2.37;;;23.80;86.60;;;;;;5098686;28;20501;-84
2023/05/26 12:01:43;;;;;;;5.83;2.47;;;23.80;86.80;;;;;;5099565;28;20475;-85
2023/05/26 12:04:10;;;;;;;3.27;1.80;;;23.80;86.60;;;;;;5100391;28;20467;-84
2023/05/26 12:06:40;;;;;;;6.00;1.90;;;23.80;86.80;;;;;;5099511;28;20469;-85
2023/05/26 12:09:21;;;;;;;7.13;2.67;;;23.80;87.10;;;;;;5103420;28;20519;-87
2023/05/26 12:11:49;;;;;;;4.93;2.40;;;23.80;85.20;;;;;;5096063;28;20821;-87
2023/05/26 12:14:16;;;;;;;6.67;2.30;;;23.70;84.10;;;;;;5096864;28;20485;-87
2023/05/26 12:16:44;;;;;;;4.03;2.33;;;23.60;84.40;;;;;;5096900;28;20444;-87
2023/05/26 12:19:12;;;;;;;7.20;2.30;;;23.60;84.10;;;;;;5096743;28;20444;-87
2023/05/26 12:21:41;;;;;;;4.73;2.77;;;23.60;84.80;;;;;;5096858;28;20437;-88
2023/05/26 12:24:09;;;;;;;3.40;2.33;;;23.50;85.40;;;;;;5096815;28;20509;-87
2023/05/26 12:26:38;;;;;;;4.47;2.30;;;23.40;85.00;;;;;;5096283;28;20455;-88
2023/05/26 12:29:10;;;;;;;2.63;1.80;;;23.40;85.40;;;;;;5094745;28;20439;-87
2023/05/26 12:31:42;;;;;;;4.60;2.00;;;23.40;86.00;;;;;;5094822;28;20463;-87
2023/05/26 12:34:10;;;;;;;7.00;2.30;;;23.30;85.40;;;;;;5094615;28;20797;-87
2023/05/26 12:36:37;;;;;;;7.07;2.10;;;23.40;85.40;;;;;;5094258;28;20463;-88
2023/05/26 12:39:05;;;;;;;2.10;1.77;;;23.30;85.70;;;;;;5094506;28;20445;-88
2023/05/26 12:41:32;;;;;;;2.93;1.90;;;23.30;85.50;;;;;;5094379;28;20443;-87
2023/05/26 12:44:01;;;;;;;2.50;2.00;;;23.30;86.60;;;;;;5096274;28;20435;-87
2023/05/26 12:46:28;;;;;;;3.90;2.00;;;23.30;86.70;;;;;;5096442;28;20432;-87
2023/05/26 12:48:55;;;;;;;2.93;1.90;;;23.30;86.80;;;;;;5096345;28;20467;-87